createdAt,value
2023-04-27T00:01:47.861Z,11.40
2023-04-27T00:04:16.721Z,11.80
2023-04-27T00:06:44.056Z,11.90
2023-04-27T00:09:11.826Z,11.80
2023-04-27T00:11:39.149Z,11.80
2023-04-27T00:14:06.369Z,11.90
2023-04-27T00:16:33.592Z,11.50
2023-04-27T00:19:00.983Z,11.40
2023-04-27T00:21:28.169Z,11.70
2023-04-27T00:23:55.322Z,11.40
2023-04-27T00:26:22.604Z,11.40
2023-04-27T00:28:49.644Z,11.40
2023-04-27T00:31:17.077Z,11.10
2023-04-27T00:33:44.183Z,11.10
2023-04-27T00:36:11.453Z,11.20
2023-04-27T00:38:38.624Z,11.20
2023-04-27T00:41:07.648Z,11.10
2023-04-27T00:43:45.798Z,10.90
2023-04-27T00:46:17.589Z,10.80
2023-04-27T00:48:45.669Z,10.80
2023-04-27T00:51:12.796Z,10.90
2023-04-27T00:53:40.015Z,10.80
2023-04-27T00:56:07.909Z,10.70
2023-04-27T00:58:35.258Z,10.60
2023-04-27T01:01:04.063Z,10.90
2023-04-27T01:03:31.978Z,10.90
2023-04-27T01:06:01.871Z,10.80
2023-04-27T01:08:29.919Z,10.80
2023-04-27T01:10:57.344Z,10.70
2023-04-27T01:13:24.750Z,10.60
2023-04-27T01:15:52.344Z,10.80
2023-04-27T01:18:19.778Z,11.10
2023-04-27T01:20:47.188Z,11.50
2023-04-27T01:23:17.775Z,11.20
2023-04-27T01:25:45.258Z,11.20
2023-04-27T01:28:12.843Z,10.90
2023-04-27T01:30:40.066Z,10.70
2023-04-27T01:33:07.324Z,10.70
2023-04-27T01:35:34.556Z,10.50
2023-04-27T01:38:02.861Z,10.40
2023-04-27T01:40:30.167Z,10.30
2023-04-27T01:42:57.335Z,10.30
2023-04-27T01:45:24.619Z,10.50
2023-04-27T01:47:52.821Z,10.40
2023-04-27T01:50:20.866Z,10.30
2023-04-27T01:52:48.393Z,10.00
2023-04-27T01:55:15.508Z,10.00
2023-04-27T01:57:42.945Z,10.00
2023-04-27T02:00:10.871Z,10.10
2023-04-27T02:02:38.154Z,10.20
2023-04-27T02:05:05.773Z,10.70
2023-04-27T02:07:32.893Z,10.90
2023-04-27T02:10:00.166Z,10.70
2023-04-27T02:12:27.239Z,10.70
2023-04-27T02:14:54.368Z,10.50
2023-04-27T02:17:21.482Z,10.30
2023-04-27T02:19:48.554Z,10.10
2023-04-27T02:22:16.373Z,9.90
2023-04-27T02:24:43.447Z,10.00
2023-04-27T02:27:10.672Z,10.20
2023-04-27T02:29:39.112Z,10.10
2023-04-27T02:32:07.161Z,10.00
2023-04-27T02:34:34.290Z,9.90
2023-04-27T02:37:01.824Z,9.90
2023-04-27T02:39:28.941Z,9.90
2023-04-27T02:41:56.053Z,10.00
2023-04-27T02:44:23.210Z,10.20
2023-04-27T02:46:51.092Z,10.40
2023-04-27T02:49:18.254Z,11.00
2023-04-27T02:51:45.580Z,10.80
2023-04-27T02:54:12.635Z,10.70
2023-04-27T02:56:39.845Z,10.60
2023-04-27T02:59:07.421Z,10.60
2023-04-27T03:01:34.615Z,10.60
2023-04-27T03:04:02.648Z,10.60
2023-04-27T03:06:30.184Z,10.80
2023-04-27T03:08:57.285Z,10.40
2023-04-27T03:11:24.361Z,10.60
2023-04-27T03:13:51.847Z,10.60
2023-04-27T03:16:18.979Z,10.80
2023-04-27T03:18:46.100Z,10.70
2023-04-27T03:21:13.915Z,10.70
2023-04-27T03:23:41.153Z,10.80
2023-04-27T03:26:13.270Z,10.90
2023-04-27T03:28:40.801Z,10.90
2023-04-27T03:31:10.562Z,10.80
2023-04-27T03:33:38.119Z,11.00
2023-04-27T03:36:06.699Z,11.20
2023-04-27T03:38:34.980Z,11.20
2023-04-27T03:41:02.393Z,11.40
2023-04-27T03:43:30.129Z,11.60
2023-04-27T03:45:57.764Z,11.60
2023-04-27T03:48:25.140Z,11.50
2023-04-27T03:50:52.410Z,11.60
2023-04-27T03:53:19.735Z,11.70
2023-04-27T03:55:47.791Z,12.00
2023-04-27T03:58:15.112Z,12.00
2023-04-27T04:00:42.320Z,12.20
2023-04-27T04:03:09.882Z,12.00
2023-04-27T04:05:37.161Z,11.80
2023-04-27T04:08:04.443Z,12.20
2023-04-27T04:10:31.766Z,12.40
2023-04-27T04:12:59.269Z,12.70
2023-04-27T04:15:26.336Z,12.80
2023-04-27T04:17:53.606Z,12.50
2023-04-27T04:20:21.103Z,12.80
2023-04-27T04:22:48.394Z,12.80
2023-04-27T04:25:15.536Z,13.10
2023-04-27T04:27:42.673Z,13.10
2023-04-27T04:30:10.674Z,13.10
2023-04-27T04:32:38.172Z,13.20
2023-04-27T04:35:06.240Z,13.40
2023-04-27T04:37:35.546Z,13.50
2023-04-27T04:40:10.806Z,13.60
2023-04-27T04:42:38.244Z,13.70
2023-04-27T04:45:07.283Z,13.60
2023-04-27T04:47:34.629Z,13.60
2023-04-27T04:50:02.336Z,13.80
2023-04-27T04:52:32.200Z,13.80
2023-04-27T04:54:59.501Z,13.80
2023-04-27T04:57:26.619Z,13.90
2023-04-27T04:59:53.858Z,14.20
2023-04-27T05:02:21.411Z,14.30
2023-04-27T05:04:48.847Z,14.30
2023-04-27T05:07:20.208Z,14.60
2023-04-27T05:09:50.746Z,14.60
2023-04-27T05:12:17.799Z,14.60
2023-04-27T05:14:44.963Z,14.90
2023-04-27T05:17:12.648Z,14.70
2023-04-27T05:19:39.801Z,14.70
2023-04-27T05:22:06.896Z,14.70
2023-04-27T05:24:34.081Z,15.20
2023-04-27T05:27:02.427Z,15.50
2023-04-27T05:29:30.034Z,16.10
2023-04-27T05:31:57.431Z,16.30
2023-04-27T05:34:24.641Z,16.30
2023-04-27T05:36:51.737Z,16.10
2023-04-27T05:39:18.906Z,16.00
2023-04-27T05:41:45.981Z,16.30
2023-04-27T05:44:13.038Z,16.50
2023-04-27T05:46:40.112Z,16.80
2023-04-27T05:49:07.448Z,16.90
2023-04-27T05:51:35.353Z,16.90
2023-04-27T05:54:02.624Z,16.30
2023-04-27T05:56:29.819Z,16.40
2023-04-27T05:58:57.161Z,16.90
2023-04-27T06:01:24.649Z,17.00
2023-04-27T06:03:52.049Z,17.30
2023-04-27T06:06:38.454Z,17.60
2023-04-27T06:09:05.595Z,17.60
2023-04-27T06:11:33.026Z,17.90
2023-04-27T06:14:00.142Z,18.20
2023-04-27T06:16:27.430Z,18.10
2023-04-27T06:18:54.943Z,17.70
2023-04-27T06:21:22.093Z,18.00
2023-04-27T06:23:49.418Z,18.20
2023-04-27T06:26:16.559Z,18.60
2023-04-27T06:28:43.958Z,19.00
2023-04-27T06:31:11.124Z,18.40
2023-04-27T06:33:38.241Z,18.40
2023-04-27T06:36:05.570Z,18.80
2023-04-27T06:38:32.750Z,18.60
2023-04-27T06:40:59.983Z,18.70
2023-04-27T06:43:27.171Z,19.10
2023-04-27T06:45:54.396Z,18.80
2023-04-27T06:48:21.899Z,18.90
2023-04-27T06:50:49.104Z,18.70
2023-04-27T06:53:17.449Z,19.10
2023-04-27T06:55:46.814Z,18.70
2023-04-27T06:58:15.602Z,19.00
2023-04-27T07:00:42.749Z,18.70
2023-04-27T07:03:10.117Z,18.80
2023-04-27T07:05:37.377Z,19.30
2023-04-27T07:08:07.901Z,19.00
2023-04-27T07:10:36.479Z,19.10
2023-04-27T07:13:03.580Z,19.30
2023-04-27T07:15:33.499Z,19.40
2023-04-27T07:18:00.793Z,19.50
2023-04-27T07:20:27.960Z,20.00
2023-04-27T07:22:55.280Z,20.00
2023-04-27T07:25:22.769Z,18.90
2023-04-27T07:27:49.964Z,19.60
2023-04-27T07:30:17.987Z,19.00
2023-04-27T07:32:45.783Z,19.80
2023-04-27T07:35:31.326Z,20.70
2023-04-27T07:37:58.504Z,19.30
2023-04-27T07:40:44.859Z,19.50
2023-04-27T07:43:12.282Z,20.10
2023-04-27T07:45:41.722Z,19.00
2023-04-27T07:48:08.947Z,19.70
2023-04-27T07:50:54.897Z,19.60
2023-04-27T07:53:22.062Z,20.30
2023-04-27T07:55:49.148Z,20.40
2023-04-27T07:58:16.544Z,20.30
2023-04-27T08:01:02.732Z,21.40
2023-04-27T08:03:30.081Z,20.50
2023-04-27T08:05:57.643Z,21.40
2023-04-27T08:08:43.889Z,20.70
2023-04-27T08:11:13.899Z,20.70
2023-04-27T08:13:41.075Z,21.80
2023-04-27T08:16:08.234Z,21.50
2023-04-27T08:18:35.651Z,22.10
2023-04-27T08:21:02.943Z,20.70
2023-04-27T08:23:31.435Z,20.90
2023-04-27T08:25:58.770Z,21.70
2023-04-27T08:28:26.138Z,21.80
2023-04-27T08:30:53.309Z,23.30
2023-04-27T08:33:20.796Z,24.30
2023-04-27T08:35:47.857Z,26.60
2023-04-27T08:38:14.943Z,24.60
2023-04-27T08:40:44.902Z,23.80
2023-04-27T08:43:30.586Z,23.60
2023-04-27T08:45:57.979Z,23.50
2023-04-27T08:48:25.152Z,25.30
2023-04-27T08:50:54.018Z,22.40
2023-04-27T08:53:22.512Z,23.20
2023-04-27T08:55:50.817Z,23.90
2023-04-27T08:58:18.066Z,23.00
2023-04-27T09:00:47.176Z,22.90
2023-04-27T09:03:26.840Z,22.60
2023-04-27T09:06:04.563Z,23.80
2023-04-27T09:08:47.087Z,22.10
2023-04-27T09:11:15.974Z,22.40
2023-04-27T09:13:45.451Z,22.50
2023-04-27T09:16:17.200Z,23.30
2023-04-27T09:18:44.484Z,22.50
2023-04-27T09:21:21.795Z,23.70
2023-04-27T09:23:48.982Z,23.80
2023-04-27T09:26:24.551Z,23.20
2023-04-27T09:28:54.039Z,25.80
2023-04-27T09:31:21.305Z,24.10
2023-04-27T09:33:56.341Z,21.60
2023-04-27T09:36:24.908Z,22.30
2023-04-27T09:38:53.327Z,23.10
2023-04-27T09:41:21.887Z,23.90
2023-04-27T09:43:50.699Z,23.90
2023-04-27T09:46:18.171Z,26.20
2023-04-27T09:48:45.345Z,26.20
2023-04-27T09:51:15.288Z,24.20
2023-04-27T09:53:58.959Z,25.50
2023-04-27T09:57:03.590Z,27.70
2023-04-27T10:00:17.596Z,25.30
2023-04-27T10:03:02.429Z,23.60
2023-04-27T10:06:07.115Z,23.30
2023-04-27T10:08:35.945Z,21.80
2023-04-27T10:11:15.617Z,22.10
2023-04-27T10:13:55.969Z,22.90
2023-04-27T10:16:23.217Z,24.70
2023-04-27T10:18:55.691Z,28.10
2023-04-27T10:21:23.933Z,26.50
2023-04-27T10:23:52.673Z,27.30
2023-04-27T10:26:27.547Z,26.00
2023-04-27T10:29:08.915Z,24.40
2023-04-27T10:32:01.832Z,26.70
2023-04-27T10:34:37.918Z,25.40
2023-04-27T10:37:07.335Z,22.40
2023-04-27T10:39:48.738Z,21.90
2023-04-27T10:42:28.725Z,21.50
2023-04-27T10:44:59.600Z,21.20
2023-04-27T10:47:41.128Z,23.10
2023-04-27T10:50:13.893Z,21.60
2023-04-27T10:52:42.014Z,22.50
2023-04-27T10:55:15.914Z,21.30
2023-04-27T10:57:52.749Z,20.40
2023-04-27T11:00:44.339Z,19.40
2023-04-27T11:03:17.224Z,18.80
2023-04-27T11:05:48.260Z,18.70
2023-04-27T11:08:18.141Z,18.80
2023-04-27T11:10:50.145Z,18.50
2023-04-27T11:13:20.908Z,18.70
2023-04-27T11:15:49.313Z,19.20
2023-04-27T11:18:18.183Z,19.00
2023-04-27T11:20:51.797Z,18.80
2023-04-27T11:23:29.112Z,18.60
2023-04-27T11:25:57.104Z,18.40
2023-04-27T11:28:24.611Z,18.70
2023-04-27T11:31:01.392Z,18.70
2023-04-27T11:33:28.729Z,21.80
2023-04-27T11:35:56.730Z,21.20
2023-04-27T11:38:24.678Z,22.60
2023-04-27T11:41:08.068Z,21.40
2023-04-27T11:43:41.000Z,23.80
2023-04-27T11:46:10.913Z,23.10
2023-04-27T11:48:39.506Z,23.10
2023-04-27T11:51:07.885Z,25.80
2023-04-27T11:53:38.370Z,25.60
2023-04-27T11:56:10.876Z,23.90
2023-04-27T11:58:58.418Z,26.00
2023-04-27T12:01:44.370Z,25.50
2023-04-27T12:04:11.979Z,24.90
2023-04-27T12:06:39.534Z,22.90
2023-04-27T12:09:07.300Z,23.70
2023-04-27T12:11:34.682Z,23.50
2023-04-27T12:14:02.658Z,23.90
2023-04-27T12:16:29.886Z,24.20
2023-04-27T12:18:57.056Z,24.00
2023-04-27T12:21:43.002Z,23.90
2023-04-27T12:24:10.115Z,24.40
2023-04-27T12:26:37.271Z,24.80
2023-04-27T12:29:04.470Z,25.10
2023-04-27T12:31:32.201Z,25.50
2023-04-27T12:33:59.345Z,24.30
2023-04-27T12:36:27.384Z,24.90
2023-04-27T12:39:18.900Z,24.60
2023-04-27T12:42:04.769Z,25.40
2023-04-27T12:44:32.378Z,26.10
2023-04-27T12:47:00.148Z,26.90
2023-04-27T12:49:46.064Z,25.00
2023-04-27T12:52:13.654Z,27.60
2023-04-27T12:54:40.971Z,26.70
2023-04-27T12:57:27.073Z,25.20
2023-04-27T13:00:12.804Z,26.90
2023-04-27T13:02:40.202Z,26.10
2023-04-27T13:05:08.020Z,24.80
2023-04-27T13:07:36.044Z,23.50
2023-04-27T13:10:03.625Z,24.10
2023-04-27T13:12:32.723Z,24.10
2023-04-27T13:14:59.968Z,24.60
2023-04-27T13:17:27.470Z,24.20
2023-04-27T13:19:54.527Z,23.00
2023-04-27T13:22:21.730Z,22.70
2023-04-27T13:24:48.862Z,23.10
2023-04-27T13:27:17.260Z,24.20
2023-04-27T13:30:03.113Z,24.00
2023-04-27T13:32:31.641Z,25.10
2023-04-27T13:34:59.671Z,21.70
2023-04-27T13:37:27.368Z,23.20
2023-04-27T13:39:54.557Z,24.50
2023-04-27T13:42:21.806Z,23.10
2023-04-27T13:44:49.049Z,24.00
2023-04-27T13:47:16.192Z,23.50
2023-04-27T13:49:43.280Z,22.10
2023-04-27T13:52:10.594Z,21.00
2023-04-27T13:54:37.683Z,22.10
2023-04-27T13:57:04.809Z,23.30
2023-04-27T13:59:50.957Z,22.70
2023-04-27T14:02:18.334Z,23.90
2023-04-27T14:04:45.635Z,23.90
2023-04-27T14:07:12.884Z,23.60
2023-04-27T14:09:40.165Z,22.50
2023-04-27T14:12:08.728Z,22.70
2023-04-27T14:14:36.436Z,23.20
2023-04-27T14:17:22.334Z,22.50
2023-04-27T14:19:49.587Z,23.40
2023-04-27T14:22:16.756Z,22.60
2023-04-27T14:24:43.851Z,22.50
2023-04-27T14:27:11.133Z,22.60
2023-04-27T14:29:38.335Z,23.20
2023-04-27T14:32:06.455Z,22.70
2023-04-27T14:34:33.765Z,22.80
2023-04-27T14:37:02.344Z,22.80
2023-04-27T14:39:29.517Z,24.30
2023-04-27T14:41:56.753Z,22.90
2023-04-27T14:44:24.200Z,22.80
2023-04-27T14:46:51.385Z,21.50
2023-04-27T14:49:18.580Z,21.30
2023-04-27T14:51:45.722Z,21.10
2023-04-27T14:54:13.394Z,21.70
2023-04-27T14:56:40.535Z,22.30
2023-04-27T14:59:07.628Z,22.50
2023-04-27T15:01:34.759Z,22.50
2023-04-27T15:04:02.101Z,21.10
2023-04-27T15:06:30.435Z,20.90
2023-04-27T15:08:57.984Z,20.80
2023-04-27T15:11:25.152Z,20.70
2023-04-27T15:13:52.251Z,20.70
2023-04-27T15:16:20.201Z,20.80
2023-04-27T15:18:47.464Z,20.70
2023-04-27T15:21:14.590Z,20.50
2023-04-27T15:23:41.720Z,20.50
2023-04-27T15:26:08.869Z,20.40
2023-04-27T15:28:37.327Z,20.50
2023-04-27T15:31:04.436Z,20.50
2023-04-27T15:33:31.600Z,20.20
2023-04-27T15:35:59.411Z,20.30
2023-04-27T15:38:26.823Z,20.30
2023-04-27T15:40:53.930Z,20.20
2023-04-27T15:43:21.790Z,20.20
2023-04-27T15:46:08.249Z,20.30
2023-04-27T15:48:35.885Z,20.40
2023-04-27T15:51:04.051Z,20.10
2023-04-27T15:53:32.027Z,20.10
2023-04-27T15:55:59.187Z,20.20
2023-04-27T15:58:45.248Z,20.20
2023-04-27T16:01:12.943Z,20.10
2023-04-27T16:03:40.198Z,20.20
2023-04-27T16:06:07.893Z,20.00
2023-04-27T16:08:35.137Z,20.00
2023-04-27T16:11:21.251Z,20.10
2023-04-27T16:13:48.965Z,19.90
2023-04-27T16:16:34.939Z,19.80
2023-04-27T16:19:02.120Z,19.60
2023-04-27T16:21:29.445Z,19.60
2023-04-27T16:23:57.024Z,19.50
2023-04-27T16:26:25.941Z,19.40
2023-04-27T16:28:56.599Z,19.30
2023-04-27T16:31:24.403Z,19.20
2023-04-27T16:33:51.898Z,19.00
2023-04-27T16:36:19.024Z,19.00
2023-04-27T16:38:46.408Z,19.00
2023-04-27T16:41:13.677Z,19.00
2023-04-27T16:43:40.834Z,19.00
2023-04-27T16:46:10.755Z,19.00
2023-04-27T16:48:38.141Z,18.80
2023-04-27T16:51:05.490Z,18.90
2023-04-27T16:53:32.747Z,18.90
2023-04-27T16:56:01.539Z,18.70
2023-04-27T16:58:30.092Z,18.70
2023-04-27T17:00:58.150Z,18.80
2023-04-27T17:03:26.175Z,18.70
2023-04-27T17:05:53.397Z,18.50
2023-04-27T17:08:20.686Z,18.50
2023-04-27T17:10:47.867Z,18.40
2023-04-27T17:13:16.538Z,18.30
2023-04-27T17:15:43.691Z,18.20
2023-04-27T17:18:10.984Z,18.20
2023-04-27T17:20:39.809Z,18.10
2023-04-27T17:23:08.738Z,18.10
2023-04-27T17:25:35.824Z,18.30
2023-04-27T17:28:03.895Z,18.10
2023-04-27T17:30:31.133Z,18.00
2023-04-27T17:32:58.317Z,18.10
2023-04-27T17:35:25.666Z,18.00
2023-04-27T17:37:53.198Z,17.80
2023-04-27T17:40:21.159Z,17.80
2023-04-27T17:42:49.798Z,17.70
2023-04-27T17:45:16.973Z,17.70
2023-04-27T17:47:44.137Z,17.70
2023-04-27T17:50:11.569Z,17.70
2023-04-27T17:52:39.504Z,17.70
2023-04-27T17:55:07.152Z,17.60
2023-04-27T17:57:34.404Z,17.50
2023-04-27T18:00:02.142Z,17.50
2023-04-27T18:02:33.318Z,17.40
2023-04-27T18:05:00.499Z,17.40
2023-04-27T18:07:27.582Z,17.40
2023-04-27T18:09:56.711Z,17.40
2023-04-27T18:12:24.020Z,17.40
2023-04-27T18:14:51.180Z,17.30
2023-04-27T18:17:18.272Z,17.30
2023-04-27T18:19:46.161Z,17.30
2023-04-27T18:22:13.489Z,17.20
2023-04-27T18:24:41.970Z,17.10
2023-04-27T18:27:09.175Z,17.10
2023-04-27T18:29:36.497Z,17.10
2023-04-27T18:32:05.878Z,17.10
2023-04-27T18:34:33.565Z,17.00
2023-04-27T18:37:01.105Z,17.00
2023-04-27T18:39:28.248Z,17.00
2023-04-27T18:41:57.200Z,17.00
2023-04-27T18:44:24.275Z,16.90
2023-04-27T18:46:51.936Z,16.80
2023-04-27T18:49:19.156Z,16.80
2023-04-27T18:51:46.392Z,16.80
2023-04-27T18:54:13.559Z,16.80
2023-04-27T18:56:40.701Z,16.80
2023-04-27T18:59:07.903Z,16.70
2023-04-27T19:01:36.775Z,16.70
2023-04-27T19:04:04.316Z,16.70
2023-04-27T19:06:31.948Z,16.60
2023-04-27T19:08:59.230Z,16.90
2023-04-27T19:11:26.691Z,16.80
2023-04-27T19:13:54.020Z,16.80
2023-04-27T19:16:39.916Z,16.70
2023-04-27T19:19:07.310Z,16.60
2023-04-27T19:21:34.419Z,16.70
2023-04-27T19:24:01.693Z,16.60
2023-04-27T19:26:29.742Z,16.60
2023-04-27T19:28:57.064Z,16.60
2023-04-27T19:31:24.393Z,16.50
2023-04-27T19:33:55.173Z,16.50
2023-04-27T19:36:23.213Z,16.40
2023-04-27T19:38:50.309Z,16.30
2023-04-27T19:41:17.729Z,16.30
2023-04-27T19:44:03.552Z,16.30
2023-04-27T19:46:31.602Z,16.30
2023-04-27T19:48:58.889Z,16.40
2023-04-27T19:51:26.728Z,16.30
2023-04-27T19:53:54.043Z,16.30
2023-04-27T19:56:21.285Z,16.30
2023-04-27T19:58:48.584Z,16.20
2023-04-27T20:01:15.715Z,16.30
2023-04-27T20:03:43.088Z,16.30
2023-04-27T20:06:10.510Z,16.20
2023-04-27T20:08:37.653Z,16.20
2023-04-27T20:11:04.820Z,16.10
2023-04-27T20:13:31.925Z,16.10
2023-04-27T20:15:59.234Z,16.00
2023-04-27T20:18:28.534Z,16.00
2023-04-27T20:20:55.745Z,16.00
2023-04-27T20:23:22.885Z,15.90
2023-04-27T20:25:50.004Z,15.80
2023-04-27T20:28:17.203Z,15.80
2023-04-27T20:30:44.370Z,15.80
2023-04-27T20:33:13.329Z,15.80
2023-04-27T20:35:40.498Z,15.70
2023-04-27T20:38:07.634Z,15.70
2023-04-27T20:40:34.996Z,15.70
2023-04-27T20:43:02.062Z,15.70
2023-04-27T20:45:29.248Z,15.60
2023-04-27T20:47:57.425Z,15.60
2023-04-27T20:50:24.821Z,15.60
2023-04-27T20:52:51.940Z,15.50
2023-04-27T20:55:19.180Z,15.40
2023-04-27T20:57:46.321Z,15.30
2023-04-27T21:00:15.506Z,15.30
2023-04-27T21:02:42.916Z,15.30
2023-04-27T21:05:10.285Z,15.30
2023-04-27T21:07:37.503Z,15.30
2023-04-27T21:10:07.076Z,15.30
2023-04-27T21:12:34.820Z,15.20
2023-04-27T21:15:02.158Z,15.10
2023-04-27T21:17:32.855Z,15.20
2023-04-27T21:20:00.550Z,15.10
2023-04-27T21:22:27.651Z,15.10
2023-04-27T21:24:54.806Z,15.10
2023-04-27T21:27:22.333Z,14.90
2023-04-27T21:29:49.462Z,15.10
2023-04-27T21:32:16.558Z,14.90
2023-04-27T21:34:43.613Z,14.90
2023-04-27T21:37:10.798Z,15.10
2023-04-27T21:39:37.962Z,15.20
2023-04-27T21:42:05.212Z,15.10
2023-04-27T21:44:32.356Z,15.00
2023-04-27T21:47:00.289Z,15.10
2023-04-27T21:49:27.678Z,15.10
2023-04-27T21:51:54.789Z,15.20
2023-04-27T21:54:21.872Z,15.50
2023-04-27T21:56:49.386Z,15.10
2023-04-27T21:59:16.666Z,15.30
2023-04-27T22:01:44.001Z,15.40
2023-04-27T22:04:11.326Z,15.10
2023-04-27T22:06:38.745Z,15.10
2023-04-27T22:09:07.966Z,15.10
2023-04-27T22:11:35.675Z,15.10
2023-04-27T22:14:02.962Z,15.10
2023-04-27T22:16:30.376Z,15.20
2023-04-27T22:18:57.994Z,15.10
2023-04-27T22:21:25.328Z,14.80
2023-04-27T22:23:52.384Z,15.20
2023-04-27T22:26:19.630Z,15.00
2023-04-27T22:28:47.474Z,15.00
2023-04-27T22:31:14.769Z,15.00
2023-04-27T22:33:41.933Z,15.00
2023-04-27T22:36:09.313Z,15.00
2023-04-27T22:38:36.634Z,14.90
2023-04-27T22:41:03.870Z,14.90
2023-04-27T22:43:31.040Z,14.90
2023-04-27T22:45:58.133Z,15.20
2023-04-27T22:48:25.430Z,14.70
2023-04-27T22:50:52.593Z,14.80
2023-04-27T22:53:19.764Z,14.90
2023-04-27T22:55:46.854Z,14.60
2023-04-27T22:58:14.160Z,14.90
2023-04-27T23:00:41.385Z,15.10
2023-04-27T23:03:08.667Z,14.50
2023-04-27T23:05:35.869Z,14.50
2023-04-27T23:08:03.316Z,14.40
2023-04-27T23:10:31.277Z,14.50
2023-04-27T23:12:58.494Z,14.30
2023-04-27T23:15:25.749Z,14.20
2023-04-27T23:17:53.011Z,14.30
2023-04-27T23:20:27.941Z,14.00
2023-04-27T23:22:56.318Z,13.90
2023-04-27T23:25:23.817Z,13.80
2023-04-27T23:27:52.404Z,13.70
2023-04-27T23:30:22.033Z,13.60
2023-04-27T23:32:49.778Z,13.70
2023-04-27T23:35:17.383Z,13.70
2023-04-27T23:37:45.020Z,13.80
2023-04-27T23:40:12.518Z,13.80
2023-04-27T23:42:39.860Z,13.80
2023-04-27T23:45:07.612Z,13.70
2023-04-27T23:47:37.191Z,13.50
2023-04-27T23:50:04.885Z,13.40
2023-04-27T23:52:34.298Z,13.40
2023-04-27T23:55:01.822Z,13.40
2023-04-27T23:57:32.879Z,13.50
